TRA771 YSNF-YPDN
Flight info
| Callsign | TRA771 |
|---|---|
| Flight time | N/A |
| Altitude | 42000 |
| Route | YSNF N0524F420 NF G329 UGTUG UGTU2X YBBN |
| Aircraft | C750/L-SDE2E3FGIJ1RWYZ/L |
Departure
| Time | 2026-04-23 09:21 |
|---|---|
| Airport | Norfolk Island International Airport (YSNF) |
Arrival
| Time | N/A |
|---|---|
| Airport | Darwin International Airport / RAAF Darwin (YPDN) |
| Time | Latitude | Longitude | Altitude | Speed | Heading |
|---|---|---|---|---|---|
| 2026-04-23 09:17 | -29.03758 | 167.94267 | 369 ft | 0 kts | 285° |
| 2026-04-23 09:20 | -29.03758 | 167.94270 | 369 ft | 3 kts | 284° |
| 2026-04-23 09:20 | -29.03763 | 167.94298 | 370 ft | 1 kts | 165° |
| 2026-04-23 09:20 | -29.03826 | 167.94330 | 370 ft | 14 kts | 170° |
| 2026-04-23 09:21 | -29.03989 | 167.94230 | 364 ft | 68 kts | 229° |
| 2026-04-23 09:21 | -29.04547 | 167.93485 | 369 ft | 158 kts | 225° |
| 2026-04-23 09:21 | -29.05217 | 167.92440 | 953 ft | 174 kts | 236° |
| 2026-04-23 09:21 | -29.05347 | 167.90915 | 1167 ft | 222 kts | 283° |
| 2026-04-23 09:22 | -29.04747 | 167.89196 | 1698 ft | 249 kts | 291° |
| 2026-04-23 09:22 | -29.04295 | 167.87208 | 2350 ft | 269 kts | 276° |
| 2026-04-23 09:22 | -29.04230 | 167.85072 | 3445 ft | 269 kts | 268° |
| 2026-04-23 09:22 | -29.04222 | 167.82915 | 4584 ft | 273 kts | 271° |
| 2026-04-23 09:23 | -29.04106 | 167.80750 | 5753 ft | 273 kts | 274° |
| 2026-04-23 09:23 | -29.03957 | 167.78608 | 6817 ft | 275 kts | 274° |
| 2026-04-23 09:23 | -29.03837 | 167.76411 | 7869 ft | 278 kts | 273° |
| 2026-04-23 09:23 | -29.03731 | 167.74192 | 9018 ft | 281 kts | 273° |
| 2026-04-23 09:24 | -29.03614 | 167.71953 | 10110 ft | 284 kts | 273° |
| 2026-04-23 09:24 | -29.03487 | 167.69651 | 10757 ft | 300 kts | 273° |
| 2026-04-23 09:24 | -29.03352 | 167.67166 | 10974 ft | 327 kts | 273° |
| 2026-04-23 09:24 | -29.03207 | 167.64466 | 11198 ft | 350 kts | 273° |
| 2026-04-23 09:25 | -29.03057 | 167.61694 | 12108 ft | 349 kts | 273° |
| 2026-04-23 09:25 | -29.02906 | 167.58916 | 12928 ft | 352 kts | 273° |
| 2026-04-23 09:25 | -29.02752 | 167.56112 | 13725 ft | 355 kts | 273° |
| 2026-04-23 09:25 | -29.02597 | 167.53283 | 14458 ft | 358 kts | 273° |
| 2026-04-23 09:26 | -29.02441 | 167.50445 | 15221 ft | 359 kts | 274° |
| 2026-04-23 09:26 | -29.02272 | 167.47598 | 15970 ft | 360 kts | 274° |
| 2026-04-23 09:26 | -29.02085 | 167.44727 | 16673 ft | 364 kts | 274° |
| 2026-04-23 09:26 | -29.01901 | 167.41832 | 17420 ft | 367 kts | 274° |
| 2026-04-23 09:27 | -29.01724 | 167.38912 | 18177 ft | 370 kts | 274° |
| 2026-04-23 09:27 | -29.01543 | 167.35964 | 18899 ft | 373 kts | 274° |
| 2026-04-23 09:27 | -29.01357 | 167.33015 | 19738 ft | 371 kts | 275° |
| 2026-04-23 09:27 | -29.01172 | 167.30088 | 20688 ft | 367 kts | 275° |
| 2026-04-23 09:28 | -29.00990 | 167.27190 | 21635 ft | 365 kts | 275° |
| 2026-04-23 09:28 | -29.00808 | 167.24306 | 22569 ft | 363 kts | 276° |
| 2026-04-23 09:28 | -29.00626 | 167.21443 | 23494 ft | 361 kts | 276° |
| 2026-04-23 09:28 | -29.00445 | 167.18590 | 24287 ft | 360 kts | 276° |
| 2026-04-23 09:29 | -29.00262 | 167.15736 | 24932 ft | 361 kts | 276° |
| 2026-04-23 09:29 | -29.00080 | 167.12901 | 25571 ft | 363 kts | 277° |
| 2026-04-23 09:29 | -28.99895 | 167.10024 | 26222 ft | 364 kts | 277° |
| 2026-04-23 09:29 | -28.99709 | 167.07129 | 26859 ft | 366 kts | 277° |
| 2026-04-23 09:30 | -28.99521 | 167.04232 | 27499 ft | 367 kts | 277° |
| 2026-04-23 09:30 | -28.99332 | 167.01317 | 28127 ft | 369 kts | 277° |
| 2026-04-23 09:30 | -28.99141 | 166.98382 | 28764 ft | 371 kts | 277° |
| 2026-04-23 09:30 | -28.98948 | 166.95432 | 29378 ft | 373 kts | 277° |
| 2026-04-23 09:31 | -28.98754 | 166.92475 | 29979 ft | 375 kts | 278° |
| 2026-04-23 09:31 | -28.98558 | 166.89492 | 30524 ft | 377 kts | 278° |
| 2026-04-23 09:31 | -28.98362 | 166.86540 | 30990 ft | 379 kts | 278° |
| 2026-04-23 09:31 | -28.98163 | 166.83531 | 31552 ft | 379 kts | 278° |
| 2026-04-23 09:32 | -28.97967 | 166.80543 | 32290 ft | 374 kts | 278° |
| 2026-04-23 09:32 | -28.97769 | 166.77585 | 32985 ft | 371 kts | 278° |
| 2026-04-23 09:32 | -28.97572 | 166.74656 | 33692 ft | 369 kts | 279° |
| 2026-04-23 09:32 | -28.97377 | 166.71749 | 34392 ft | 366 kts | 279° |
| 2026-04-23 09:33 | -28.97183 | 166.68863 | 35005 ft | 364 kts | 279° |
| 2026-04-23 09:33 | -28.96988 | 166.65990 | 35573 ft | 362 kts | 279° |
| 2026-04-23 09:33 | -28.96794 | 166.63129 | 36159 ft | 361 kts | 279° |
| 2026-04-23 09:33 | -28.96601 | 166.60282 | 36759 ft | 359 kts | 279° |
| 2026-04-23 09:34 | -28.96407 | 166.57443 | 37365 ft | 358 kts | 279° |
| 2026-04-23 09:34 | -28.96214 | 166.54621 | 37983 ft | 356 kts | 279° |
| 2026-04-23 09:34 | -28.96021 | 166.51808 | 38608 ft | 355 kts | 279° |
| 2026-04-23 09:34 | -28.95828 | 166.49006 | 39169 ft | 353 kts | 279° |
| 2026-04-23 09:35 | -28.95634 | 166.46206 | 39604 ft | 354 kts | 279° |
| 2026-04-23 09:35 | -28.95438 | 166.43396 | 40020 ft | 356 kts | 279° |
| 2026-04-23 09:35 | -28.95243 | 166.40578 | 40447 ft | 357 kts | 279° |
| 2026-04-23 09:35 | -28.95046 | 166.37749 | 40874 ft | 358 kts | 279° |
| 2026-04-23 09:36 | -28.94850 | 166.34950 | 41294 ft | 359 kts | 279° |
| 2026-04-23 09:36 | -28.94651 | 166.32107 | 41721 ft | 360 kts | 278° |
| 2026-04-23 09:36 | -28.94451 | 166.29257 | 42130 ft | 360 kts | 278° |
| 2026-04-23 09:36 | -28.94247 | 166.26385 | 42232 ft | 369 kts | 278° |
| 2026-04-23 09:37 | -28.94035 | 166.23428 | 42234 ft | 379 kts | 278° |
| 2026-04-23 09:37 | -28.93600 | 166.17272 | 42249 ft | 398 kts | 278° |
| 2026-04-23 09:38 | -28.93141 | 166.10860 | 42246 ft | 412 kts | 278° |
| 2026-04-23 09:38 | -28.92665 | 166.04247 | 42247 ft | 422 kts | 278° |
| 2026-04-23 09:39 | -28.92182 | 165.97577 | 42246 ft | 426 kts | 278° |
| 2026-04-23 09:39 | -28.91690 | 165.90843 | 42246 ft | 426 kts | 278° |
| 2026-04-23 09:40 | -28.91194 | 165.84103 | 42246 ft | 426 kts | 278° |
| 2026-04-23 09:40 | -28.90696 | 165.77367 | 42243 ft | 426 kts | 278° |
| 2026-04-23 09:41 | -28.90196 | 165.70620 | 42243 ft | 426 kts | 278° |
| 2026-04-23 09:41 | -28.89691 | 165.63862 | 42242 ft | 426 kts | 278° |
| 2026-04-23 09:42 | -28.89184 | 165.57120 | 42241 ft | 427 kts | 278° |
| 2026-04-23 09:42 | -28.88676 | 165.50413 | 42240 ft | 427 kts | 278° |
| 2026-04-23 09:43 | -28.88162 | 165.43670 | 42240 ft | 427 kts | 278° |
| 2026-04-23 09:43 | -28.87644 | 165.36916 | 42245 ft | 427 kts | 278° |
| 2026-04-23 09:44 | -28.87122 | 165.30156 | 42243 ft | 428 kts | 278° |
| 2026-04-23 09:44 | -28.86596 | 165.23393 | 42241 ft | 428 kts | 278° |
| 2026-04-23 09:45 | -28.86066 | 165.16623 | 42243 ft | 429 kts | 278° |
| 2026-04-23 09:45 | -28.85532 | 165.09840 | 42244 ft | 429 kts | 278° |
| 2026-04-23 09:46 | -28.84994 | 165.03053 | 42241 ft | 429 kts | 278° |
| 2026-04-23 09:46 | -28.84455 | 164.96301 | 42244 ft | 430 kts | 278° |
| 2026-04-23 09:47 | -28.83910 | 164.89514 | 42243 ft | 430 kts | 278° |
| 2026-04-23 09:47 | -28.83362 | 164.82728 | 42243 ft | 430 kts | 278° |
| 2026-04-23 09:48 | -28.82810 | 164.75934 | 42238 ft | 430 kts | 278° |
| 2026-04-23 09:48 | -28.82253 | 164.69128 | 42242 ft | 431 kts | 278° |
| 2026-04-23 09:49 | -28.81693 | 164.62323 | 42243 ft | 431 kts | 278° |
| 2026-04-23 09:49 | -28.81129 | 164.55512 | 42235 ft | 431 kts | 278° |
| 2026-04-23 09:50 | -28.80561 | 164.48705 | 42234 ft | 432 kts | 278° |
| 2026-04-23 09:50 | -28.79989 | 164.41885 | 42236 ft | 432 kts | 278° |
| 2026-04-23 09:51 | -28.79418 | 164.35115 | 42238 ft | 432 kts | 278° |
| 2026-04-23 09:51 | -28.78839 | 164.28293 | 42239 ft | 432 kts | 278° |
| 2026-04-23 09:52 | -28.78256 | 164.21466 | 42239 ft | 433 kts | 278° |
| 2026-04-23 09:52 | -28.77669 | 164.14633 | 42236 ft | 434 kts | 278° |
| 2026-04-23 09:53 | -28.77078 | 164.07790 | 42234 ft | 434 kts | 278° |
| 2026-04-23 09:53 | -28.76482 | 164.00931 | 42238 ft | 435 kts | 278° |
| 2026-04-23 09:54 | -28.75881 | 163.94068 | 42220 ft | 435 kts | 278° |
| 2026-04-23 09:54 | -28.75277 | 163.87190 | 42220 ft | 436 kts | 279° |
| 2026-04-23 09:55 | -28.74667 | 163.80305 | 42218 ft | 436 kts | 279° |
| 2026-04-23 09:55 | -28.74055 | 163.73426 | 42225 ft | 436 kts | 279° |
| 2026-04-23 09:56 | -28.73443 | 163.66588 | 42224 ft | 437 kts | 279° |
| 2026-04-23 09:56 | -28.72823 | 163.59702 | 42225 ft | 437 kts | 279° |
| 2026-04-23 09:57 | -28.72200 | 163.52813 | 42223 ft | 437 kts | 279° |
| 2026-04-23 09:57 | -28.71571 | 163.45915 | 42228 ft | 437 kts | 279° |
| 2026-04-23 09:58 | -28.70940 | 163.39016 | 42226 ft | 438 kts | 279° |
| 2026-04-23 09:58 | -28.70411 | 163.33278 | 42229 ft | 439 kts | 279° |
| 2026-04-23 09:59 | -28.69667 | 163.25236 | 42233 ft | 439 kts | 279° |
| 2026-04-23 09:59 | -28.69023 | 163.18318 | 42225 ft | 440 kts | 279° |
| 2026-04-23 10:00 | -28.68480 | 163.12517 | 42226 ft | 440 kts | 279° |
| 2026-04-23 10:00 | -28.67831 | 163.05621 | 42232 ft | 440 kts | 279° |
| 2026-04-23 10:01 | -28.67174 | 162.98681 | 42229 ft | 441 kts | 279° |
| 2026-04-23 10:01 | -28.66511 | 162.91733 | 42232 ft | 441 kts | 279° |
| 2026-04-23 10:02 | -28.65845 | 162.84777 | 42233 ft | 442 kts | 279° |
| 2026-04-23 10:02 | -28.65174 | 162.77818 | 42232 ft | 442 kts | 279° |
| 2026-04-23 10:03 | -28.64499 | 162.70853 | 42230 ft | 443 kts | 279° |
| 2026-04-23 10:03 | -28.63821 | 162.63891 | 42215 ft | 441 kts | 279° |
| 2026-04-23 10:04 | -28.63140 | 162.56945 | 42221 ft | 443 kts | 279° |
| 2026-04-23 10:04 | -28.62458 | 162.50011 | 42233 ft | 444 kts | 279° |
| 2026-04-23 10:05 | -28.61766 | 162.43016 | 42232 ft | 444 kts | 279° |
| 2026-04-23 10:05 | -28.61069 | 162.36015 | 42229 ft | 445 kts | 279° |
| 2026-04-23 10:06 | -28.60369 | 162.29021 | 42231 ft | 445 kts | 279° |
| 2026-04-23 10:06 | -28.59664 | 162.22008 | 42227 ft | 447 kts | 279° |
| 2026-04-23 10:07 | -28.58954 | 162.14986 | 42227 ft | 447 kts | 279° |
| 2026-04-23 10:07 | -28.58240 | 162.07959 | 42229 ft | 448 kts | 279° |
| 2026-04-23 10:08 | -28.57519 | 162.00906 | 42224 ft | 448 kts | 279° |
| 2026-04-23 10:08 | -28.56800 | 161.93901 | 42225 ft | 449 kts | 279° |
| 2026-04-23 10:09 | -28.55706 | 161.83315 | 42232 ft | 449 kts | 279° |
| 2026-04-23 10:09 | -28.54971 | 161.76253 | 42229 ft | 450 kts | 279° |
| 2026-04-23 10:10 | -28.54232 | 161.69182 | 42231 ft | 450 kts | 279° |
| 2026-04-23 10:10 | -28.53488 | 161.62100 | 42230 ft | 451 kts | 279° |
| 2026-04-23 10:11 | -28.52739 | 161.55011 | 42230 ft | 451 kts | 278° |
| 2026-04-23 10:11 | -28.51985 | 161.47906 | 42229 ft | 452 kts | 279° |
| 2026-04-23 10:12 | -28.51232 | 161.40854 | 42232 ft | 453 kts | 278° |
| 2026-04-23 10:12 | -28.50470 | 161.33742 | 42213 ft | 453 kts | 278° |
| 2026-04-23 10:13 | -28.49703 | 161.26620 | 42222 ft | 453 kts | 278° |
| 2026-04-23 10:13 | -28.48931 | 161.19499 | 42227 ft | 454 kts | 278° |
| 2026-04-23 10:14 | -28.48156 | 161.12370 | 42225 ft | 454 kts | 278° |
| 2026-04-23 10:14 | -28.47375 | 161.05234 | 42224 ft | 455 kts | 278° |
| 2026-04-23 10:15 | -28.46591 | 160.98096 | 42226 ft | 455 kts | 278° |
| 2026-04-23 10:15 | -28.45802 | 160.90953 | 42222 ft | 456 kts | 278° |
| 2026-04-23 10:16 | -28.45014 | 160.83855 | 42224 ft | 456 kts | 278° |
| 2026-04-23 10:16 | -28.44216 | 160.76697 | 42220 ft | 456 kts | 278° |
| 2026-04-23 10:17 | -28.43414 | 160.69540 | 42223 ft | 457 kts | 278° |
| 2026-04-23 10:17 | -28.42605 | 160.62361 | 42223 ft | 457 kts | 278° |
| 2026-04-23 10:18 | -28.41794 | 160.55188 | 42223 ft | 458 kts | 278° |
| 2026-04-23 10:18 | -28.40977 | 160.48006 | 42217 ft | 458 kts | 278° |
| 2026-04-23 10:19 | -28.40162 | 160.40868 | 42224 ft | 459 kts | 278° |
| 2026-04-23 10:19 | -28.39336 | 160.33671 | 42223 ft | 459 kts | 278° |
| 2026-04-23 10:20 | -28.38507 | 160.26479 | 42224 ft | 459 kts | 278° |
| 2026-04-23 10:20 | -28.37672 | 160.19278 | 42224 ft | 460 kts | 278° |
| 2026-04-23 10:21 | -28.36835 | 160.12080 | 42225 ft | 460 kts | 278° |
| 2026-04-23 10:21 | -28.35992 | 160.04872 | 42224 ft | 460 kts | 278° |
| 2026-04-23 10:22 | -28.35145 | 159.97666 | 42226 ft | 461 kts | 278° |
| 2026-04-23 10:22 | -28.34298 | 159.90490 | 42226 ft | 461 kts | 278° |
| 2026-04-23 10:23 | -28.33444 | 159.83283 | 42229 ft | 461 kts | 278° |
| 2026-04-23 10:23 | -28.32585 | 159.76071 | 42223 ft | 461 kts | 278° |
| 2026-04-23 10:24 | -28.31721 | 159.68858 | 42227 ft | 461 kts | 278° |
| 2026-04-23 10:24 | -28.30854 | 159.61641 | 42224 ft | 462 kts | 278° |
| 2026-04-23 10:25 | -28.29982 | 159.54420 | 42226 ft | 462 kts | 278° |
| 2026-04-23 10:25 | -28.29105 | 159.47194 | 42228 ft | 462 kts | 278° |
| 2026-04-23 10:26 | -28.28226 | 159.39973 | 42231 ft | 462 kts | 278° |
| 2026-04-23 10:26 | -28.27342 | 159.32750 | 42231 ft | 462 kts | 278° |
| 2026-04-23 10:27 | -28.26454 | 159.25529 | 42229 ft | 462 kts | 278° |
| 2026-04-23 10:27 | -28.25567 | 159.18346 | 42231 ft | 463 kts | 278° |
| 2026-04-23 10:28 | -28.24668 | 159.11114 | 42230 ft | 463 kts | 278° |
| 2026-04-23 10:28 | -28.23764 | 159.03885 | 42231 ft | 463 kts | 278° |
| 2026-04-23 10:29 | -28.22857 | 158.96658 | 42231 ft | 463 kts | 278° |
| 2026-04-23 10:29 | -28.21945 | 158.89427 | 42229 ft | 463 kts | 278° |
| 2026-04-23 10:30 | -28.21028 | 158.82190 | 42231 ft | 463 kts | 277° |
| 2026-04-23 10:30 | -28.20113 | 158.74994 | 42232 ft | 464 kts | 277° |
| 2026-04-23 10:31 | -28.19183 | 158.67715 | 42230 ft | 464 kts | 277° |
| 2026-04-23 10:31 | -28.18261 | 158.60521 | 42230 ft | 464 kts | 277° |
| 2026-04-23 10:32 | -28.17328 | 158.53280 | 42234 ft | 464 kts | 277° |
| 2026-04-23 10:32 | -28.16391 | 158.46040 | 42231 ft | 464 kts | 277° |
| 2026-04-23 10:33 | -28.15450 | 158.38798 | 42225 ft | 464 kts | 277° |
| 2026-04-23 10:33 | -28.14506 | 158.31559 | 42224 ft | 464 kts | 277° |
| 2026-04-23 10:34 | -28.13556 | 158.24310 | 42224 ft | 465 kts | 277° |
| 2026-04-23 10:34 | -28.12604 | 158.17065 | 42233 ft | 467 kts | 279° |
| 2026-04-23 10:35 | -28.11645 | 158.09816 | 42242 ft | 469 kts | 279° |
| 2026-04-23 10:35 | -28.10677 | 158.02518 | 42239 ft | 468 kts | 279° |
| 2026-04-23 10:36 | -28.09705 | 157.95223 | 42236 ft | 468 kts | 279° |
| 2026-04-23 10:36 | -28.08729 | 157.87923 | 42242 ft | 469 kts | 279° |
| 2026-04-23 10:37 | -28.07749 | 157.80628 | 42242 ft | 469 kts | 279° |
| 2026-04-23 10:37 | -28.06763 | 157.73324 | 42241 ft | 469 kts | 279° |
| 2026-04-23 10:38 | -28.05774 | 157.66018 | 42242 ft | 469 kts | 279° |
| 2026-04-23 10:38 | -28.04780 | 157.58709 | 42243 ft | 469 kts | 279° |
| 2026-04-23 10:39 | -28.03783 | 157.51405 | 42241 ft | 470 kts | 279° |
| 2026-04-23 10:39 | -28.02781 | 157.44100 | 42241 ft | 470 kts | 279° |
| 2026-04-23 10:40 | -28.01774 | 157.36787 | 42243 ft | 470 kts | 279° |
| 2026-04-23 10:40 | -28.00770 | 157.29521 | 42243 ft | 470 kts | 279° |
| 2026-04-23 10:41 | -27.99755 | 157.22203 | 42242 ft | 470 kts | 279° |
| 2026-04-23 10:41 | -27.98733 | 157.14872 | 42242 ft | 471 kts | 279° |
| 2026-04-23 10:42 | -27.97711 | 157.07560 | 42245 ft | 471 kts | 279° |
| 2026-04-23 10:42 | -27.96689 | 157.00286 | 42247 ft | 471 kts | 279° |
| 2026-04-23 10:43 | -27.95657 | 156.92962 | 42246 ft | 471 kts | 279° |
| 2026-04-23 10:43 | -27.94620 | 156.85639 | 42249 ft | 472 kts | 279° |
| 2026-04-23 10:44 | -27.93580 | 156.78318 | 42247 ft | 472 kts | 279° |
| 2026-04-23 10:44 | -27.92534 | 156.70987 | 42246 ft | 472 kts | 279° |
| 2026-04-23 10:45 | -27.91663 | 156.64902 | 42250 ft | 472 kts | 279° |
| 2026-04-23 10:45 | -27.90436 | 156.56366 | 42248 ft | 472 kts | 279° |
| 2026-04-23 10:46 | -27.89378 | 156.49032 | 42251 ft | 472 kts | 279° |
| 2026-04-23 10:46 | -27.88496 | 156.42942 | 42248 ft | 472 kts | 279° |
| 2026-04-23 10:47 | -27.87429 | 156.35603 | 42248 ft | 472 kts | 279° |
| 2026-04-23 10:47 | -27.86359 | 156.28268 | 42252 ft | 473 kts | 279° |
| 2026-04-23 10:48 | -27.85284 | 156.20930 | 42253 ft | 473 kts | 279° |
| 2026-04-23 10:48 | -27.84206 | 156.13596 | 42255 ft | 473 kts | 279° |
| 2026-04-23 10:49 | -27.83124 | 156.06267 | 42257 ft | 473 kts | 279° |
| 2026-04-23 10:49 | -27.82036 | 155.98918 | 42257 ft | 473 kts | 279° |
| 2026-04-23 10:50 | -27.80944 | 155.91578 | 42254 ft | 473 kts | 279° |
| 2026-04-23 10:50 | -27.79857 | 155.84298 | 42253 ft | 473 kts | 279° |
| 2026-04-23 10:51 | -27.78758 | 155.76968 | 42253 ft | 473 kts | 279° |
| 2026-04-23 10:51 | -27.77655 | 155.69634 | 42250 ft | 473 kts | 279° |
| 2026-04-23 10:52 | -27.76546 | 155.62296 | 42252 ft | 474 kts | 279° |
| 2026-04-23 10:52 | -27.75435 | 155.54965 | 42250 ft | 473 kts | 279° |
| 2026-04-23 10:53 | -27.74888 | 155.51369 | 41682 ft | 457 kts | 279° |
| 2026-04-23 10:53 | -27.74361 | 155.47908 | 41099 ft | 439 kts | 279° |
| 2026-04-23 10:53 | -27.73853 | 155.44576 | 40540 ft | 423 kts | 279° |
| 2026-04-23 10:53 | -27.73361 | 155.41354 | 40005 ft | 409 kts | 279° |
| 2026-04-23 10:54 | -27.72883 | 155.38234 | 39467 ft | 397 kts | 279° |
| 2026-04-23 10:54 | -27.72423 | 155.35229 | 38965 ft | 390 kts | 279° |
| 2026-04-23 10:54 | -27.71960 | 155.32219 | 38408 ft | 387 kts | 279° |
| 2026-04-23 10:54 | -27.71499 | 155.29212 | 37908 ft | 393 kts | 279° |
| 2026-04-23 10:55 | -27.71025 | 155.26135 | 37387 ft | 403 kts | 279° |
| 2026-04-23 10:55 | -27.70540 | 155.22988 | 36854 ft | 408 kts | 279° |
| 2026-04-23 10:55 | -27.70050 | 155.19818 | 36310 ft | 411 kts | 279° |
| 2026-04-23 10:55 | -27.69557 | 155.16628 | 35766 ft | 414 kts | 279° |
| 2026-04-23 10:56 | -27.69061 | 155.13425 | 35217 ft | 415 kts | 279° |
| 2026-04-23 10:56 | -27.68561 | 155.10208 | 34670 ft | 417 kts | 279° |
| 2026-04-23 10:56 | -27.68059 | 155.06972 | 34125 ft | 419 kts | 279° |
| 2026-04-23 10:56 | -27.67552 | 155.03719 | 33560 ft | 421 kts | 279° |
| 2026-04-23 10:57 | -27.67049 | 155.00495 | 33015 ft | 424 kts | 279° |
| 2026-04-23 10:57 | -27.66531 | 154.97173 | 32449 ft | 426 kts | 279° |
| 2026-04-23 10:57 | -27.66014 | 154.93868 | 31885 ft | 429 kts | 279° |
| 2026-04-23 10:57 | -27.65500 | 154.90591 | 31325 ft | 431 kts | 279° |
| 2026-04-23 10:58 | -27.64975 | 154.87244 | 30753 ft | 435 kts | 279° |
| 2026-04-23 10:58 | -27.64447 | 154.83883 | 30152 ft | 432 kts | 278° |
| 2026-04-23 10:58 | -27.63924 | 154.80567 | 29575 ft | 428 kts | 278° |
| 2026-04-23 10:58 | -27.63403 | 154.77260 | 29010 ft | 426 kts | 278° |
| 2026-04-23 10:59 | -27.62892 | 154.74019 | 28459 ft | 424 kts | 278° |
| 2026-04-23 10:59 | -27.62369 | 154.70714 | 27898 ft | 422 kts | 278° |
| 2026-04-23 10:59 | -27.61867 | 154.67547 | 27360 ft | 420 kts | 278° |
| 2026-04-23 10:59 | -27.61354 | 154.64311 | 26808 ft | 418 kts | 278° |
| 2026-04-23 11:00 | -27.60843 | 154.61096 | 26259 ft | 416 kts | 278° |
| 2026-04-23 11:00 | -27.60332 | 154.57887 | 25713 ft | 414 kts | 278° |
| 2026-04-23 11:00 | -27.59824 | 154.54697 | 25174 ft | 412 kts | 278° |
| 2026-04-23 11:00 | -27.59318 | 154.51530 | 24635 ft | 410 kts | 278° |
| 2026-04-23 11:01 | -27.58813 | 154.48372 | 24096 ft | 408 kts | 278° |
| 2026-04-23 11:01 | -27.58309 | 154.45227 | 23516 ft | 407 kts | 278° |
| 2026-04-23 11:01 | -27.57809 | 154.42105 | 22987 ft | 403 kts | 278° |
| 2026-04-23 11:01 | -27.57311 | 154.39007 | 22457 ft | 402 kts | 277° |
| 2026-04-23 11:02 | -27.56813 | 154.35905 | 21932 ft | 400 kts | 277° |
| 2026-04-23 11:02 | -27.56324 | 154.32872 | 21410 ft | 398 kts | 277° |
| 2026-04-23 11:02 | -27.55829 | 154.29809 | 20886 ft | 396 kts | 277° |
| 2026-04-23 11:02 | -27.55336 | 154.26754 | 20368 ft | 394 kts | 277° |
| 2026-04-23 11:03 | -27.54847 | 154.23728 | 19853 ft | 392 kts | 277° |
| 2026-04-23 11:03 | -27.54357 | 154.20706 | 19331 ft | 391 kts | 277° |
| 2026-04-23 11:03 | -27.53870 | 154.17703 | 18833 ft | 389 kts | 277° |
| 2026-04-23 11:03 | -27.53383 | 154.14705 | 18281 ft | 387 kts | 277° |
| 2026-04-23 11:04 | -27.52900 | 154.11734 | 17773 ft | 385 kts | 277° |
| 2026-04-23 11:04 | -27.52417 | 154.08770 | 17272 ft | 384 kts | 277° |
| 2026-04-23 11:04 | -27.51934 | 154.05808 | 16760 ft | 382 kts | 276° |
| 2026-04-23 11:04 | -27.51453 | 154.02861 | 16258 ft | 381 kts | 276° |
| 2026-04-23 11:05 | -27.50981 | 153.99969 | 15763 ft | 380 kts | 277° |
| 2026-04-23 11:05 | -27.50503 | 153.97047 | 15265 ft | 378 kts | 276° |
| 2026-04-23 11:05 | -27.50027 | 153.94143 | 14771 ft | 377 kts | 276° |
| 2026-04-23 11:05 | -27.49552 | 153.91245 | 14272 ft | 375 kts | 276° |
| 2026-04-23 11:06 | -27.47539 | 153.85884 | 13207 ft | 381 kts | 307° |
| 2026-04-23 11:06 | -27.45733 | 153.83686 | 12759 ft | 382 kts | 311° |
| 2026-04-23 11:06 | -27.43884 | 153.81554 | 12255 ft | 380 kts | 312° |
| 2026-04-23 11:07 | -27.42063 | 153.79420 | 11755 ft | 377 kts | 311° |
| 2026-04-23 11:07 | -27.40308 | 153.77312 | 11264 ft | 357 kts | 311° |
| 2026-04-23 11:07 | -27.38653 | 153.75337 | 10798 ft | 337 kts | 311° |
| 2026-04-23 11:07 | -27.37072 | 153.73474 | 10362 ft | 321 kts | 311° |
| 2026-04-23 11:08 | -27.35580 | 153.71713 | 9928 ft | 311 kts | 311° |
| 2026-04-23 11:08 | -27.34089 | 153.69931 | 9515 ft | 306 kts | 310° |
| 2026-04-23 11:08 | -27.33027 | 153.67947 | 9031 ft | 299 kts | 284° |
| 2026-04-23 11:08 | -27.32622 | 153.65700 | 8833 ft | 292 kts | 275° |
| 2026-04-23 11:09 | -27.32301 | 153.63428 | 8574 ft | 296 kts | 275° |
| 2026-04-23 11:09 | -27.31963 | 153.61137 | 8274 ft | 298 kts | 276° |
| 2026-04-23 11:09 | -27.31605 | 153.58837 | 7967 ft | 298 kts | 276° |
| 2026-04-23 11:09 | -27.31267 | 153.56659 | 7668 ft | 297 kts | 276° |
| 2026-04-23 11:10 | -27.30922 | 153.54379 | 7359 ft | 295 kts | 276° |
| 2026-04-23 11:10 | -27.30579 | 153.52111 | 7054 ft | 293 kts | 276° |
| 2026-04-23 11:10 | -27.30235 | 153.49873 | 6753 ft | 284 kts | 276° |
| 2026-04-23 11:10 | -27.29906 | 153.47738 | 6446 ft | 271 kts | 276° |
| 2026-04-23 11:11 | -27.29592 | 153.45676 | 6168 ft | 265 kts | 275° |
| 2026-04-23 11:11 | -27.29286 | 153.43663 | 5912 ft | 264 kts | 275° |
| 2026-04-23 11:11 | -27.28974 | 153.41621 | 5622 ft | 266 kts | 275° |
| 2026-04-23 11:11 | -27.28658 | 153.39569 | 5293 ft | 267 kts | 275° |
| 2026-04-23 11:12 | -27.28342 | 153.37519 | 4959 ft | 266 kts | 275° |
| 2026-04-23 11:12 | -27.28030 | 153.35495 | 4619 ft | 258 kts | 275° |
| 2026-04-23 11:12 | -27.27726 | 153.33535 | 4285 ft | 250 kts | 275° |
| 2026-04-23 11:12 | -27.27435 | 153.31643 | 3970 ft | 243 kts | 275° |
| 2026-04-23 11:13 | -27.27143 | 153.29793 | 3673 ft | 238 kts | 275° |
| 2026-04-23 11:13 | -27.26846 | 153.27978 | 3377 ft | 234 kts | 276° |
| 2026-04-23 11:13 | -27.26614 | 153.26198 | 3047 ft | 225 kts | 266° |
| 2026-04-23 11:13 | -27.27025 | 153.24590 | 2723 ft | 208 kts | 234° |
| 2026-04-23 11:14 | -27.27779 | 153.23259 | 2521 ft | 197 kts | 229° |
| 2026-04-23 11:14 | -27.28511 | 153.21979 | 2285 ft | 192 kts | 229° |
| 2026-04-23 11:14 | -27.29210 | 153.20741 | 2042 ft | 189 kts | 229° |
| 2026-04-23 11:14 | -27.29905 | 153.19508 | 1797 ft | 185 kts | 229° |
| 2026-04-23 11:15 | -27.30582 | 153.18307 | 1577 ft | 175 kts | 230° |
| 2026-04-23 11:15 | -27.31236 | 153.17315 | 1333 ft | 143 kts | 218° |
| 2026-04-23 11:15 | -27.31919 | 153.16651 | 1155 ft | 116 kts | 208° |
| 2026-04-23 11:15 | -27.32565 | 153.16217 | 1014 ft | 104 kts | 200° |
| 2026-04-23 11:16 | -27.33201 | 153.15865 | 886 ft | 101 kts | 200° |
| 2026-04-23 11:16 | -27.33830 | 153.15510 | 789 ft | 103 kts | 200° |
| 2026-04-23 11:16 | -27.34481 | 153.15130 | 713 ft | 107 kts | 201° |
| 2026-04-23 11:16 | -27.35144 | 153.14768 | 535 ft | 107 kts | 203° |
| 2026-04-23 11:17 | -27.35829 | 153.14391 | 359 ft | 107 kts | 205° |
| 2026-04-23 11:17 | -27.36460 | 153.14013 | 256 ft | 101 kts | 204° |
| 2026-04-23 11:17 | -27.37094 | 153.13654 | 114 ft | 102 kts | 205° |
| 2026-04-23 11:17 | -27.37687 | 153.13309 | 22 ft | 89 kts | 205° |
| 2026-04-23 11:18 | -27.38043 | 153.13111 | 19 ft | 25 kts | 212° |
| 2026-04-23 11:18 | -27.38206 | 153.13006 | 19 ft | 28 kts | 207° |
| 2026-04-23 11:18 | -27.38376 | 153.12908 | 20 ft | 27 kts | 209° |
| 2026-04-23 11:18 | -27.38447 | 153.12804 | 19 ft | 13 kts | 270° |
| 2026-04-23 11:19 | -27.38422 | 153.12701 | 18 ft | 15 kts | 283° |
| 2026-04-23 11:19 | -27.38369 | 153.12572 | 15 ft | 14 kts | 259° |
| 2026-04-23 11:19 | -27.38437 | 153.12467 | 15 ft | 17 kts | 257° |
| 2026-04-23 11:19 | -27.38476 | 153.12225 | 14 ft | 29 kts | 259° |
| 2026-04-23 11:20 | -27.38476 | 153.12145 | 14 ft | 0 kts | 296° |